Time;durP1;ratioP1;P1;durP2;ratioP2;P2;SDS_P1;SDS_P2;PMS_P1;PMS_P2;Temp;Humidity;BMP_temperature;BMP_pressure;BME280_temperature;BME280_humidity;BME280_pressure;Samples;Min_cycle;Max_cycle;Signal;HPM_P1;HPM_P2
2023/04/03 00:09:50;;;;;;;1.33;0.43;;;;;;;;;;20868108;28;20202;-70
2023/04/03 00:19:52;;;;;;;0.30;0.20;;;;;;;;;;20867239;28;20289;-70
2023/04/03 00:29:54;;;;;;;0.30;0.20;;;;;;;;;;20851205;28;20260;-70
2023/04/03 00:39:55;;;;;;;1.40;0.67;;;;;;;;;;20867119;28;20217;-70
2023/04/03 00:49:57;;;;;;;0.20;0.20;;;6.90;99.90;;;;;;20866545;28;20213;-70
2023/04/03 01:00:07;;;;;;;0.30;0.30;;;;;;;;;;20875975;28;20298;-70
2023/04/03 01:10:11;;;;;;;0.33;0.30;;;;;;;;;;20881100;28;20259;-70
2023/04/03 01:20:28;;;;;;;0.40;0.30;;;;;;;;;;20911362;22;20280;-69
2023/04/03 01:30:41;;;;;;;0.53;0.30;;;6.50;99.90;;;;;;20898021;28;20206;-69
2023/04/03 01:40:43;;;;;;;0.67;0.43;;;;;;;;;;20897856;28;20201;-69
2023/04/03 01:50:46;;;;;;;0.83;0.37;;;;;;;;;;20879771;28;20256;-69
2023/04/03 02:00:48;;;;;;;0.30;0.30;;;;;;;;;;20873464;28;20214;-68
2023/04/03 02:10:50;;;;;;;0.77;0.30;;;4.60;99.90;;;;;;20877554;28;20205;-69
2023/04/03 02:20:53;;;;;;;0.63;0.47;;;;;;;;;;20877566;28;20556;-69
2023/04/03 02:30:54;;;;;;;0.70;0.50;;;;;;;;;;20876923;28;20226;-68
2023/04/03 02:41:05;;;;;;;0.37;0.37;;;5.90;99.90;;;;;;20876102;28;20263;-69
2023/04/03 02:51:07;;;;;;;0.93;0.43;;;;;;;;;;20875375;28;20561;-69
2023/04/03 03:01:10;;;;;;;1.40;0.67;;;5.90;99.90;;;;;;20873977;28;20268;-69
2023/04/03 03:11:12;;;;;;;0.40;0.40;;;;;;;;;;20889646;28;20263;-69
2023/04/03 03:21:15;;;;;;;0.40;0.40;;;6.00;99.90;;;;;;20888678;28;20221;-69
2023/04/03 03:31:17;;;;;;;0.70;0.50;;;;;;;;;;20868473;28;20252;-69
2023/04/03 03:41:18;;;;;;;0.80;0.60;;;;;;;;;;20860083;28;20248;-69
2023/04/03 03:51:21;;;;;;;1.10;0.40;;;;;;;;;;20871526;28;20225;-69
2023/04/03 04:01:24;;;;;;;0.80;0.60;;;5.30;99.90;;;;;;20871092;28;20201;-69
2023/04/03 04:11:27;;;;;;;0.77;0.47;;;;;;;;;;20866218;28;20218;-69
2023/04/03 04:21:31;;;;;;;0.60;0.40;;;;;;;;;;20869031;28;20225;-69
2023/04/03 04:31:34;;;;;;;1.40;0.47;;;;;;;;;;20850391;28;20244;-69
2023/04/03 04:41:36;;;;;;;1.50;0.80;;;;;;;;;;20866136;28;20280;-69
2023/04/03 04:51:39;;;;;;;0.83;0.60;;;;;;;;;;20900974;28;20264;-69
2023/04/03 05:01:42;;;;;;;0.43;0.33;;;;;;;;;;20884017;28;20746;-69
2023/04/03 05:11:49;;;;;;;5.37;0.50;;;;;;;;;;20883578;28;20700;-69
2023/04/03 05:21:54;;;;;;;0.40;0.40;;;;;;;;;;20882302;28;20237;-69
2023/04/03 05:31:56;;;;;;;2.47;0.97;;;;;;;;;;20881442;28;20267;-69
2023/04/03 05:41:58;;;;;;;0.87;0.50;;;;;;;;;;20880323;28;20202;-69
2023/04/03 05:52:01;;;;;;;1.17;0.60;;;5.10;99.90;;;;;;20896715;28;20797;-69
2023/04/03 06:02:06;;;;;;;2.80;0.97;;;;;;;;;;20878354;28;20240;-69
2023/04/03 06:12:08;;;;;;;0.73;0.53;;;;;;;;;;20848673;28;20587;-68
2023/04/03 06:22:11;;;;;;;0.50;0.50;;;;;;;;;;20878741;28;20593;-68
2023/04/03 06:32:13;;;;;;;0.97;0.50;;;5.60;99.90;;;;;;20862181;28;20631;-69
2023/04/03 06:42:15;;;;;;;1.23;0.37;;;;;;;;;;20844753;28;20284;-68
2023/04/03 06:52:31;;;;;;;0.40;0.30;;;;;;;;;;20873899;28;20217;-69
2023/04/03 07:02:32;;;;;;;4.33;2.90;;;;;;;;;;20865521;28;20222;-69
2023/04/03 07:12:34;;;;;;;2.17;0.30;;;;;;;;;;20859586;28;20576;-69
2023/04/03 07:22:37;;;;;;;0.60;0.40;;;;;;;;;;20875096;28;20229;-68
2023/04/03 07:32:40;;;;;;;0.93;0.57;;;;;;;;;;20832436;23;20792;-68
2023/04/03 07:42:42;;;;;;;1.00;0.60;;;;;;;;;;20670375;28;20571;-68
2023/04/03 07:52:44;;;;;;;0.80;0.40;;;;;;;;;;20673992;28;20222;-68
2023/04/03 08:02:51;;;;;;;1.27;0.60;;;;;;;;;;20688026;28;20580;-68
2023/04/03 08:12:53;;;;;;;0.63;0.40;;;;;;;;;;20745460;28;20273;-68
2023/04/03 08:22:55;;;;;;;1.53;0.57;;;;;;;;;;20702907;28;20641;-68
2023/04/03 08:32:56;;;;;;;0.70;0.40;;;;;;;;;;20633733;28;20282;-68
2023/04/03 08:43:03;;;;;;;0.40;0.33;;;;;;;;;;20670157;28;20219;-68
2023/04/03 08:53:06;;;;;;;0.87;0.50;;;;;;;;;;20721678;28;20230;-69
2023/04/03 09:03:12;;;;;;;0.30;0.20;;;;;;;;;;20683508;28;20235;-69
2023/04/03 09:13:25;;;;;;;0.27;0.20;;;;;;;;;;20739620;28;20735;-69
2023/04/03 09:23:32;;;;;;;0.50;0.33;;;9.20;99.90;;;;;;20767801;28;20238;-69
2023/04/03 09:33:35;;;;;;;1.87;0.43;;;;;;;;;;20706135;28;20623;-69
2023/04/03 09:43:38;;;;;;;0.40;0.20;;;;;;;;;;20769290;28;20222;-69
2023/04/03 09:53:41;;;;;;;1.33;0.57;;;;;;;;;;20774422;28;20504;-68
2023/04/03 10:03:46;;;;;;;0.47;0.40;;;;;;;;;;20733542;28;20211;-69
2023/04/03 10:13:53;;;;;;;0.50;0.40;;;;;;;;;;20760751;28;20238;-68
2023/04/03 10:24:02;;;;;;;1.80;0.60;;;;;;;;;;20771895;28;20284;-68
2023/04/03 10:34:07;;;;;;;0.83;0.47;;;;;;;;;;20723357;28;20219;-68
2023/04/03 10:44:15;;;;;;;1.87;0.40;;;;;;;;;;20732177;28;20214;-67
2023/04/03 10:54:26;;;;;;;0.50;0.30;;;;;;;;;;20787329;28;20210;-67
2023/04/03 11:04:34;;;;;;;0.27;0.23;;;;;;;;;;20754033;28;20269;-67
2023/04/03 11:14:38;;;;;;;0.97;0.57;;;;;;;;;;20726461;28;20227;-67
2023/04/03 11:24:43;;;;;;;0.40;0.30;;;9.80;99.90;;;;;;20720029;28;20712;-70
2023/04/03 11:34:50;;;;;;;0.23;0.20;;;9.80;99.90;;;;;;20720917;28;20701;-67
2023/04/03 11:45:21;;;;;;;1.33;0.50;;;9.90;99.90;;;;;;20673649;28;20214;-68
2023/04/03 11:55:32;;;;;;;0.40;0.33;;;;;;;;;;20703741;28;20603;-68
2023/04/03 12:05:38;;;;;;;0.20;0.20;;;;;;;;;;20718704;28;20629;-68
2023/04/03 12:15:40;;;;;;;0.73;0.27;;;;;;;;;;20682456;28;20279;-68
2023/04/03 12:25:52;;;;;;;1.47;0.40;;;;;;;;;;20702634;28;20238;-69
2023/04/03 12:36:09;;;;;;;0.47;0.40;;;;;;;;;;20718375;28;20278;-68
2023/04/03 12:46:15;;;;;;;0.37;0.20;;;;;;;;;;20685178;28;20219;-69
2023/04/03 12:56:21;;;;;;;0.73;0.50;;;;;;;;;;20770179;28;20210;-68
2023/04/03 13:06:24;;;;;;;0.30;0.30;;;;;;;;;;20735799;28;20277;-70
2023/04/03 13:16:26;;;;;;;0.63;0.40;;;;;;;;;;20747786;28;20308;-68
2023/04/03 13:26:33;;;;;;;1.63;0.40;;;11.30;99.90;;;;;;20791192;28;20218;-68
2023/04/03 13:36:55;;;;;;;2.20;0.40;;;;;;;;;;20833332;23;20233;-69
2023/04/03 13:47:20;;;;;;;0.40;0.30;;;12.00;99.90;;;;;;20875341;28;20206;-69
2023/04/03 13:57:23;;;;;;;3.30;0.60;;;12.10;99.90;;;;;;20891235;28;20238;-69
2023/04/03 14:07:25;;;;;;;0.60;0.40;;;;;;;;;;20890905;28;20267;-69
2023/04/03 14:17:28;;;;;;;0.87;0.40;;;;;;;;;;20830417;28;20296;-68
2023/04/03 14:27:35;;;;;;;2.20;0.70;;;10.60;99.90;;;;;;20879972;28;20218;-69
2023/04/03 14:37:37;;;;;;;0.23;0.20;;;11.20;99.90;;;;;;20873536;28;20244;-69
2023/04/03 14:47:47;;;;;;;1.70;0.50;;;;;;;;;;20822458;28;20209;-69
2023/04/03 14:57:49;;;;;;;0.50;0.40;;;;;;;;;;20872126;28;20229;-69
2023/04/03 15:07:54;;;;;;;1.87;0.50;;;;;;;;;;20871869;28;20206;-69
2023/04/03 15:17:57;;;;;;;0.80;0.50;;;;;;;;;;20869929;28;20286;-69
2023/04/03 15:28:02;;;;;;;0.47;0.27;;;;;;;;;;20805505;28;20236;-69
2023/04/03 15:38:07;;;;;;;0.50;0.40;;;;;;;;;;20886229;28;20210;-70
2023/04/03 15:48:10;;;;;;;0.30;0.30;;;;;;;;;;20867803;28;20270;-69
2023/04/03 15:58:12;;;;;;;2.50;0.53;;;;;;;;;;20884208;28;20267;-69
2023/04/03 16:08:14;;;;;;;1.50;0.60;;;11.10;99.90;;;;;;20884270;28;20291;-69
2023/04/03 16:18:21;;;;;;;2.63;0.50;;;;;;;;;;20899768;28;20233;-69
2023/04/03 16:28:23;;;;;;;0.60;0.40;;;;;;;;;;20890165;28;20608;-69
2023/04/03 16:38:27;;;;;;;0.87;0.40;;;;;;;;;;20899681;28;20230;-69
2023/04/03 16:48:30;;;;;;;2.37;0.60;;;10.60;99.90;;;;;;20798281;28;20637;-69
2023/04/03 16:58:32;;;;;;;1.03;0.20;;;;;;;;;;20731695;28;20690;-69
2023/04/03 17:08:34;;;;;;;0.57;0.40;;;10.30;99.90;;;;;;20718416;28;20211;-69
2023/04/03 17:18:37;;;;;;;0.63;0.30;;;;;;;;;;20701970;28;20215;-69
2023/04/03 17:28:40;;;;;;;0.90;0.47;;;;;;;;;;20716039;28;20238;-69
2023/04/03 17:38:42;;;;;;;0.20;0.20;;;;;;;;;;20711899;28;20672;-68
2023/04/03 17:48:44;;;;;;;0.57;0.30;;;;;;;;;;20714763;28;20262;-69
2023/04/03 17:58:46;;;;;;;0.57;0.40;;;;;;;;;;20713651;28;20297;-69
2023/04/03 18:08:49;;;;;;;0.53;0.43;;;;;;;;;;20697128;28;20203;-69
2023/04/03 18:18:51;;;;;;;8.40;6.87;;;;;;;;;;20799996;28;20577;-69
2023/04/03 18:28:59;;;;;;;0.33;0.30;;;9.30;99.90;;;;;;20878067;28;20209;-69
2023/04/03 18:39:01;;;;;;;0.40;0.40;;;;;;;;;;20873625;28;20226;-68
2023/04/03 18:49:02;;;;;;;2.43;0.40;;;8.90;99.90;;;;;;20872286;28;20248;-69
2023/04/03 18:59:05;;;;;;;3.70;0.50;;;;;;;;;;20872036;28;20754;-69
2023/04/03 19:09:07;;;;;;;0.60;0.40;;;;;;;;;;20841642;28;20231;-68
2023/04/03 19:19:09;;;;;;;1.30;0.60;;;;;;;;;;20784581;28;20241;-68
2023/04/03 19:29:11;;;;;;;1.60;0.40;;;;;;;;;;20801875;28;20219;-69
2023/04/03 19:39:14;;;;;;;0.17;0.17;;;;;;;;;;20748707;23;20653;-70
2023/04/03 19:49:16;;;;;;;2.07;0.40;;;;;;;;;;20734312;28;20246;-69
2023/04/03 19:59:18;;;;;;;1.47;0.60;;;;;;;;;;20733598;28;20223;-69
2023/04/03 20:09:21;;;;;;;1.00;0.67;;;;;;;;;;20715139;28;20257;-69
2023/04/03 20:19:25;;;;;;;1.37;0.77;;;;;;;;;;20716161;28;20227;-69
2023/04/03 20:29:27;;;;;;;0.53;0.40;;;;;;;;;;20748570;28;20199;-69
2023/04/03 20:39:30;;;;;;;0.30;0.30;;;;;;;;;;20747775;28;20671;-69
2023/04/03 20:49:31;;;;;;;0.27;0.27;;;;;;;;;;20706149;28;20227;-69
2023/04/03 20:59:34;;;;;;;0.30;0.20;;;;;;;;;;20732781;28;20313;-69
2023/04/03 21:09:55;;;;;;;0.17;0.17;;;;;;;;;;20718746;28;20226;-69
2023/04/03 21:19:57;;;;;;;0.10;0.10;;;;;;;;;;20749221;28;20231;-68
2023/04/03 21:29:59;;;;;;;0.40;0.40;;;;;;;;;;20732926;28;20297;-68
2023/04/03 21:40:01;;;;;;;0.20;0.20;;;;;;;;;;20732479;28;20219;-68
2023/04/03 21:50:04;;;;;;;0.57;0.40;;;;;;;;;;20730581;28;20215;-68
2023/04/03 22:00:09;;;;;;;0.90;0.50;;;;;;;;;;20730744;28;20694;-68
2023/04/03 22:10:11;;;;;;;1.10;0.30;;;;;;;;;;20730403;28;20262;-68
2023/04/03 22:20:13;;;;;;;6.30;0.47;;;;;;;;;;20729622;28;20219;-68
2023/04/03 22:30:16;;;;;;;1.10;0.33;;;;;;;;;;20744333;28;20231;-69
2023/04/03 22:40:25;;;;;;;0.63;0.40;;;;;;;;;;20743749;28;20235;-69
2023/04/03 22:50:38;;;;;;;1.03;0.47;;;;;;;;;;20727555;28;20210;-68
2023/04/03 23:00:40;;;;;;;0.20;0.20;;;;;;;;;;20727047;28;20281;-69
2023/04/03 23:10:42;;;;;;;1.87;0.40;;;;;;;;;;20724986;28;20277;-68
2023/04/03 23:20:44;;;;;;;0.40;0.30;;;;;;;;;;20731283;28;20679;-68
2023/04/03 23:30:46;;;;;;;0.77;0.40;;;;;;;;;;20723667;28;20215;-68
2023/04/03 23:40:47;;;;;;;0.60;0.50;;;;;;;;;;20722636;28;20285;-69
2023/04/03 23:50:51;;;;;;;0.40;0.30;;;;;;;;;;20722577;28;20231;-68
